Aeroporto :
LOGIN :

Iscrizione | Disclaimer

   EN    FR    IT 

 










Sommario :    VFR   VFR Marginale   IFR   IFR Intensivo   IFR Molto Intensivo
Visibilità : 
Base nubi : 
>= 8 km
>= 3000ft
5 / 8 km
1000 / 3000 ft
1500m / 5 km
500 / 1000 ft
800 / 1500m
200 / 500 ft
< 800m
< 200 ft
Simboli :   Temporali  Nebbia  Neve Forte  Precipitazioni Forti  Vento > 20 kt
SIGMETs :   Varie  Temporali  Ghiacco  Turbolenza  Onda orograficha  Ceneri Vulcaniche






- Altitudine del aeroporto : 656 ft


UUBC - Grabtsevo

ULTIMO METAR :
  • 041800Z 27004MPS CAVOK 03/M03 Q1020 R31/190055 NOSIG RMK QFE748/0998

METARs OBSOLETI :
  • 041730Z 26004MPS CAVOK 03/M03 Q1020 R31/190055 NOSIG RMK QFE748/0997
  • 041700Z 26004MPS CAVOK 03/M04 Q1019 R31/190055 NOSIG RMK QFE747/0997
  • 041630Z 25004MPS CAVOK 04/M04 Q1019 R31/190055 NOSIG RMK QFE747/0996
  • 041600Z 26004MPS CAVOK 05/M04 Q1018 R31/190055 NOSIG RMK QFE747/0996
  • 041530Z 28005MPS CAVOK 05/M06 Q1018 R31/190055 NOSIG RMK QFE747/0996

TAF TAF UUBC
Valido dal 04 a 15 ore il 05 a 00 ore UTC


041353Z 0415/0424 27003G08MPS 9999 SCT025
TEMPO 0415/0418 31009G14MPS 3100 -TSRASN BKN015CB



MetMap, La meteo Aeronautica in un colpo d'occhio ! - Copyright ORBIFLY Dicembre 2007 - Disclaimer

ORBIFLY MET'MAP TEAM :

Programmazione e sviluppo : Alexandra Zaïnal
Concezione : Baudouin d'Aumeries
Aiuto per la programmazione : Marc-Olivier Méhu
Supporto tecnico e logistico : Manuel Goepfert
Aiuto per la traduzione : Arnaldo La Scala

Contatto : metmap@orbifly.com




FONTI E CREDITI :

   NOAA